createdAt,value
2023-02-16T00:01:36.190Z,44.90
2023-02-16T00:06:42.697Z,44.40
2023-02-16T00:12:08.428Z,47.10
2023-02-16T00:17:11.277Z,47.93
2023-02-16T00:22:13.082Z,46.20
2023-02-16T00:27:19.010Z,46.20
2023-02-16T00:32:20.792Z,47.37
2023-02-16T00:37:22.616Z,46.67
2023-02-16T00:42:29.116Z,47.13
2023-02-16T00:47:37.990Z,48.17
2023-02-16T00:52:46.612Z,45.00
2023-02-16T00:57:56.624Z,46.43
2023-02-16T01:03:00.478Z,44.77
2023-02-16T01:08:34.257Z,44.20
2023-02-16T01:13:44.467Z,45.73
2023-02-16T01:18:46.892Z,47.37
2023-02-16T01:23:50.916Z,45.80
2023-02-16T01:28:57.522Z,48.03
2023-02-16T01:33:59.324Z,46.23
2023-02-16T01:39:01.716Z,46.97
2023-02-16T01:44:07.986Z,47.37
2023-02-16T01:49:19.158Z,45.63
2023-02-16T01:54:29.320Z,44.87
2023-02-16T01:59:42.204Z,47.30
2023-02-16T02:05:10.657Z,46.07
2023-02-16T02:10:35.212Z,48.43
2023-02-16T02:15:37.183Z,49.17
2023-02-16T02:21:27.762Z,47.63
2023-02-16T02:26:57.188Z,47.20
2023-02-16T02:32:35.958Z,48.67
2023-02-16T02:37:56.743Z,47.07
2023-02-16T02:43:04.175Z,49.63
2023-02-16T02:48:06.356Z,48.93
2023-02-16T02:53:18.283Z,48.73
2023-02-16T02:58:41.740Z,48.33
2023-02-16T03:03:50.927Z,47.93
2023-02-16T03:09:00.069Z,51.93
2023-02-16T03:14:04.510Z,50.30
2023-02-16T03:19:31.140Z,50.03
2023-02-16T03:24:51.979Z,48.33
2023-02-16T03:29:55.270Z,51.53
2023-02-16T03:35:00.723Z,50.47
2023-02-16T03:40:25.496Z,52.37
2023-02-16T03:45:28.178Z,50.37
2023-02-16T03:50:30.239Z,52.00
2023-02-16T03:55:36.847Z,50.93
2023-02-16T04:00:39.267Z,51.13
2023-02-16T04:05:46.401Z,45.37
2023-02-16T04:10:54.282Z,50.37
2023-02-16T04:15:59.959Z,47.63
2023-02-16T04:21:04.292Z,50.27
2023-02-16T04:26:06.409Z,50.83
2023-02-16T04:31:08.358Z,49.73
2023-02-16T04:36:14.840Z,49.27
2023-02-16T04:41:19.038Z,48.33
2023-02-16T04:46:20.831Z,49.77
2023-02-16T04:51:23.582Z,48.83
2023-02-16T04:56:28.218Z,49.07
2023-02-16T05:01:34.767Z,49.83
2023-02-16T05:06:46.281Z,47.70
2023-02-16T05:12:06.738Z,44.43
2023-02-16T05:17:22.845Z,47.00
2023-02-16T05:22:25.176Z,47.80
2023-02-16T05:27:29.388Z,47.37
2023-02-16T05:32:33.481Z,48.30
2023-02-16T05:37:42.451Z,47.47
2023-02-16T05:42:46.823Z,47.43
2023-02-16T05:47:53.156Z,46.90
2023-02-16T05:53:00.006Z,49.03
2023-02-16T05:58:06.141Z,43.83
2023-02-16T06:03:07.818Z,41.80
2023-02-16T06:08:14.758Z,48.30
2023-02-16T06:13:19.670Z,48.00
2023-02-16T06:18:24.331Z,49.53
2023-02-16T06:23:33.036Z,46.57
2023-02-16T06:28:37.004Z,47.53
2023-02-16T06:33:43.539Z,46.93
2023-02-16T06:38:45.671Z,48.53
2023-02-16T06:43:47.409Z,45.43
2023-02-16T06:48:51.423Z,47.67
2023-02-16T06:53:58.523Z,47.87
2023-02-16T06:59:00.228Z,49.03
2023-02-16T07:04:06.961Z,49.13
2023-02-16T07:09:10.597Z,49.50
2023-02-16T07:14:16.757Z,50.00
2023-02-16T07:19:18.482Z,50.37
2023-02-16T07:24:21.201Z,52.33
2023-02-16T07:29:23.457Z,48.50
2023-02-16T07:34:25.387Z,33.87
2023-02-16T07:39:29.031Z,45.33
2023-02-16T07:44:33.317Z,52.73
2023-02-16T07:49:37.122Z,54.30
2023-02-16T07:54:39.997Z,53.80
2023-02-16T07:59:45.281Z,54.20
2023-02-16T08:04:52.780Z,50.37
2023-02-16T08:09:57.257Z,42.70
2023-02-16T08:15:03.463Z,48.23
2023-02-16T08:20:09.829Z,49.33
2023-02-16T08:25:11.773Z,49.73
2023-02-16T08:30:18.301Z,48.43
2023-02-16T08:35:22.293Z,43.00
2023-02-16T08:40:24.852Z,43.13
2023-02-16T08:45:30.231Z,48.00
2023-02-16T08:50:36.909Z,46.67
2023-02-16T08:55:42.080Z,45.40
2023-02-16T09:00:45.838Z,48.63
2023-02-16T09:05:52.784Z,48.50
2023-02-16T09:10:55.508Z,44.77
2023-02-16T09:16:06.101Z,45.30
2023-02-16T09:21:18.517Z,43.23
2023-02-16T09:26:23.197Z,45.77
2023-02-16T09:31:30.922Z,32.37
2023-02-16T09:36:32.787Z,44.67
2023-02-16T09:41:41.075Z,47.27
2023-02-16T09:46:42.939Z,47.10
2023-02-16T09:51:50.138Z,46.47
2023-02-16T09:56:59.817Z,46.27
2023-02-16T10:02:23.216Z,43.17
2023-02-16T10:07:43.853Z,44.17
2023-02-16T10:13:00.954Z,48.03
2023-02-16T10:18:12.893Z,48.63
2023-02-16T10:23:29.882Z,47.23
2023-02-16T10:28:34.912Z,47.93
2023-02-16T10:33:44.035Z,49.43
2023-02-16T10:38:48.232Z,48.33
2023-02-16T10:44:07.384Z,48.73
2023-02-16T10:49:12.825Z,48.43
2023-02-16T10:54:23.056Z,51.47
2023-02-16T10:59:30.544Z,51.47
2023-02-16T11:04:41.493Z,49.90
2023-02-16T11:09:48.589Z,48.83
2023-02-16T11:14:58.204Z,51.90
2023-02-16T11:20:05.743Z,52.13
2023-02-16T11:25:28.174Z,51.90
2023-02-16T11:30:32.263Z,50.77
2023-02-16T11:35:42.980Z,52.40
2023-02-16T11:40:51.286Z,51.43
2023-02-16T11:46:02.482Z,51.90
2023-02-16T11:51:09.313Z,53.43
2023-02-16T11:56:27.369Z,50.87
2023-02-16T12:01:47.835Z,50.03
2023-02-16T12:07:03.586Z,52.03
2023-02-16T12:12:30.316Z,51.63
2023-02-16T12:17:54.950Z,44.37
2023-02-16T12:23:09.325Z,43.87
2023-02-16T12:28:20.369Z,46.03
2023-02-16T12:33:37.663Z,48.27
2023-02-16T12:39:19.176Z,37.40
2023-02-16T12:44:37.443Z,54.40
2023-02-16T12:49:47.703Z,53.57
2023-02-16T12:54:53.059Z,52.43
2023-02-16T13:00:03.908Z,53.90
2023-02-16T13:05:16.974Z,53.00
2023-02-16T13:10:35.587Z,52.50
2023-02-16T13:15:41.820Z,46.37
2023-02-16T13:20:52.801Z,53.90
2023-02-16T13:26:42.429Z,54.47
2023-02-16T13:37:16.202Z,58.83
2023-02-16T13:42:30.062Z,24.57
2023-02-16T13:47:34.290Z,59.03
2023-02-16T13:52:45.463Z,57.13
2023-02-16T13:57:52.083Z,62.10
2023-02-16T14:03:17.699Z,60.97
2023-02-16T14:08:28.069Z,61.63
2023-02-16T14:13:33.842Z,38.23
2023-02-16T14:19:00.332Z,60.10
2023-02-16T14:24:03.288Z,61.63
2023-02-16T14:29:20.379Z,61.53
2023-02-16T14:34:31.507Z,61.90
2023-02-16T14:39:34.971Z,63.83
2023-02-16T14:45:10.385Z,61.83
2023-02-16T14:50:28.568Z,58.57
2023-02-16T14:55:55.216Z,58.33
2023-02-16T15:01:04.288Z,57.03
2023-02-16T15:06:06.803Z,58.23
2023-02-16T15:11:14.041Z,57.13
2023-02-16T15:16:16.666Z,58.50
2023-02-16T15:21:22.564Z,61.47
2023-02-16T15:26:29.636Z,58.90
2023-02-16T15:31:37.129Z,58.43
2023-02-16T15:36:43.822Z,57.70
2023-02-16T15:41:51.912Z,58.33
2023-02-16T15:47:16.580Z,62.37
2023-02-16T15:52:26.265Z,62.60
2023-02-16T15:57:36.693Z,62.87
2023-02-16T16:02:43.737Z,62.97
2023-02-16T16:07:48.767Z,73.20
2023-02-16T16:12:56.477Z,62.27
2023-02-16T16:18:00.918Z,72.25
2023-02-16T16:23:04.574Z,63.43
2023-02-16T16:28:14.030Z,64.00
2023-02-16T16:33:16.216Z,63.23
2023-02-16T16:38:30.314Z,62.57
2023-02-16T16:43:38.669Z,64.27
2023-02-16T16:49:03.274Z,68.83
2023-02-16T16:54:36.814Z,68.70
2023-02-16T16:59:39.500Z,67.30
2023-02-16T17:04:46.067Z,70.63
2023-02-16T17:09:50.072Z,70.67
2023-02-16T17:14:52.343Z,71.80
2023-02-16T17:20:01.388Z,71.93
2023-02-16T17:25:03.288Z,76.50
2023-02-16T17:30:07.720Z,65.77
2023-02-16T17:35:11.696Z,67.87
2023-02-16T17:40:19.594Z,65.40
2023-02-16T17:45:24.636Z,68.70
2023-02-16T17:50:26.505Z,73.67
2023-02-16T17:55:28.355Z,68.53
2023-02-16T18:00:31.102Z,72.47
2023-02-16T18:05:38.597Z,81.67
2023-02-16T18:10:46.679Z,78.50
2023-02-16T18:15:52.346Z,80.03
2023-02-16T18:20:57.836Z,89.10
2023-02-16T18:25:59.621Z,84.03
2023-02-16T18:31:01.901Z,99.93
2023-02-16T18:36:05.483Z,83.93
2023-02-16T18:41:08.280Z,80.97
2023-02-16T18:46:10.758Z,78.03
2023-02-16T18:51:16.488Z,80.97
2023-02-16T18:56:19.221Z,83.37
2023-02-16T19:01:30.324Z,77.80
2023-02-16T19:06:34.379Z,83.73
2023-02-16T19:11:39.365Z,79.83
2023-02-16T19:16:41.179Z,80.07
2023-02-16T19:21:47.516Z,78.97
2023-02-16T19:26:50.192Z,82.47
2023-02-16T19:31:51.990Z,83.70
2023-02-16T19:36:54.041Z,89.40
2023-02-16T19:41:58.308Z,87.23
2023-02-16T19:47:03.256Z,93.13
2023-02-16T19:52:05.499Z,88.27
2023-02-16T19:57:09.455Z,90.87
2023-02-16T20:02:15.459Z,98.40
2023-02-16T20:07:17.247Z,93.87
2023-02-16T20:12:21.031Z,97.30
2023-02-16T20:17:25.914Z,93.03
2023-02-16T20:22:28.786Z,92.77
2023-02-16T20:27:35.595Z,56.17
2023-02-16T20:32:37.504Z,80.73
2023-02-16T20:37:41.629Z,93.77
2023-02-16T20:42:48.841Z,89.77
2023-02-16T20:47:50.536Z,95.63
2023-02-16T20:52:54.609Z,67.00
2023-02-16T20:57:58.906Z,90.13
2023-02-16T21:03:00.704Z,92.17
2023-02-16T21:08:04.763Z,86.73
2023-02-16T21:13:06.678Z,83.73
2023-02-16T21:18:11.111Z,86.07
2023-02-16T21:23:17.607Z,82.13
2023-02-16T21:28:20.407Z,69.17
2023-02-16T21:33:22.483Z,76.27
2023-02-16T21:38:24.493Z,79.80
2023-02-16T21:43:30.313Z,75.63
2023-02-16T21:48:45.288Z,70.47
2023-02-16T21:53:48.354Z,75.20
2023-02-16T21:58:51.134Z,79.17
2023-02-16T22:03:59.349Z,72.13
2023-02-16T22:09:05.890Z,76.57
2023-02-16T22:14:10.949Z,75.57
2023-02-16T22:19:18.619Z,68.37
2023-02-16T22:24:20.511Z,65.67
2023-02-16T22:29:22.229Z,65.27
2023-02-16T22:34:26.416Z,64.67
2023-02-16T22:39:31.597Z,61.13
2023-02-16T22:44:35.511Z,67.23
2023-02-16T22:49:44.069Z,62.53
2023-02-16T22:54:48.127Z,65.20
2023-02-16T22:59:51.016Z,58.87
2023-02-16T23:04:58.725Z,43.70
2023-02-16T23:10:00.764Z,57.27
2023-02-16T23:15:03.737Z,46.60
2023-02-16T23:20:09.491Z,63.43
2023-02-16T23:25:29.825Z,52.73
2023-02-16T23:30:31.639Z,56.03
2023-02-16T23:35:37.843Z,58.60
2023-02-16T23:40:44.214Z,56.90
2023-02-16T23:45:51.337Z,50.83
2023-02-16T23:50:56.064Z,52.63
2023-02-16T23:56:02.818Z,44.90
